sensor_id;sensor_type;location;lat;lon;timestamp;P1;durP1;ratioP1;P2;durP2;ratioP2
84392;SDS011;74592;48.846;2.358;2024-02-14T00:01:52;4.35;;;2.60;;
84392;SDS011;74592;48.846;2.358;2024-02-14T00:04:18;6.28;;;3.13;;
84392;SDS011;74592;48.846;2.358;2024-02-14T00:06:44;6.53;;;2.65;;
84392;SDS011;74592;48.846;2.358;2024-02-14T00:09:10;7.10;;;2.83;;
84392;SDS011;74592;48.846;2.358;2024-02-14T00:11:36;6.15;;;2.65;;
84392;SDS011;74592;48.846;2.358;2024-02-14T00:14:02;5.32;;;3.15;;
84392;SDS011;74592;48.846;2.358;2024-02-14T00:16:27;7.03;;;2.70;;
84392;SDS011;74592;48.846;2.358;2024-02-14T00:18:56;5.40;;;2.78;;
84392;SDS011;74592;48.846;2.358;2024-02-14T00:21:22;5.80;;;2.80;;
84392;SDS011;74592;48.846;2.358;2024-02-14T00:23:49;5.22;;;2.88;;
84392;SDS011;74592;48.846;2.358;2024-02-14T00:26:15;6.72;;;2.67;;
84392;SDS011;74592;48.846;2.358;2024-02-14T00:28:41;6.18;;;2.42;;
84392;SDS011;74592;48.846;2.358;2024-02-14T00:31:07;6.90;;;2.50;;
84392;SDS011;74592;48.846;2.358;2024-02-14T00:33:32;8.23;;;3.10;;
84392;SDS011;74592;48.846;2.358;2024-02-14T00:35:58;5.22;;;2.78;;
84392;SDS011;74592;48.846;2.358;2024-02-14T00:38:24;5.78;;;3.47;;
84392;SDS011;74592;48.846;2.358;2024-02-14T00:40:49;5.13;;;3.28;;
84392;SDS011;74592;48.846;2.358;2024-02-14T00:43:15;4.88;;;2.40;;
84392;SDS011;74592;48.846;2.358;2024-02-14T00:45:40;4.82;;;2.80;;
84392;SDS011;74592;48.846;2.358;2024-02-14T00:48:06;7.55;;;3.33;;
84392;SDS011;74592;48.846;2.358;2024-02-14T00:50:32;6.15;;;2.90;;
84392;SDS011;74592;48.846;2.358;2024-02-14T00:53:02;5.35;;;2.65;;
84392;SDS011;74592;48.846;2.358;2024-02-14T00:55:28;7.25;;;3.00;;
84392;SDS011;74592;48.846;2.358;2024-02-14T00:57:54;4.10;;;2.47;;
84392;SDS011;74592;48.846;2.358;2024-02-14T01:00:19;5.40;;;3.35;;
84392;SDS011;74592;48.846;2.358;2024-02-14T01:02:45;6.13;;;3.03;;
84392;SDS011;74592;48.846;2.358;2024-02-14T01:05:10;7.00;;;3.10;;
84392;SDS011;74592;48.846;2.358;2024-02-14T01:07:36;4.40;;;3.20;;
84392;SDS011;74592;48.846;2.358;2024-02-14T01:10:02;6.28;;;3.15;;
84392;SDS011;74592;48.846;2.358;2024-02-14T01:12:28;4.80;;;2.65;;
84392;SDS011;74592;48.846;2.358;2024-02-14T01:14:57;6.40;;;3.00;;
84392;SDS011;74592;48.846;2.358;2024-02-14T01:17:23;5.72;;;3.08;;
84392;SDS011;74592;48.846;2.358;2024-02-14T01:19:50;6.55;;;2.67;;
84392;SDS011;74592;48.846;2.358;2024-02-14T01:22:15;5.35;;;3.33;;
84392;SDS011;74592;48.846;2.358;2024-02-14T01:24:44;6.13;;;2.97;;
84392;SDS011;74592;48.846;2.358;2024-02-14T01:27:10;5.00;;;3.22;;
84392;SDS011;74592;48.846;2.358;2024-02-14T01:29:36;6.07;;;2.95;;
84392;SDS011;74592;48.846;2.358;2024-02-14T01:32:01;7.85;;;3.40;;
84392;SDS011;74592;48.846;2.358;2024-02-14T01:34:29;5.60;;;3.60;;
84392;SDS011;74592;48.846;2.358;2024-02-14T01:36:54;4.90;;;3.03;;
84392;SDS011;74592;48.846;2.358;2024-02-14T01:39:20;5.18;;;3.22;;
84392;SDS011;74592;48.846;2.358;2024-02-14T01:41:47;5.50;;;3.47;;
84392;SDS011;74592;48.846;2.358;2024-02-14T01:44:16;6.25;;;3.55;;
84392;SDS011;74592;48.846;2.358;2024-02-14T01:46:42;5.53;;;3.40;;
84392;SDS011;74592;48.846;2.358;2024-02-14T01:49:09;4.28;;;3.15;;
84392;SDS011;74592;48.846;2.358;2024-02-14T01:51:37;7.78;;;3.50;;
84392;SDS011;74592;48.846;2.358;2024-02-14T01:54:04;6.63;;;3.60;;
84392;SDS011;74592;48.846;2.358;2024-02-14T01:56:31;8.18;;;3.92;;
84392;SDS011;74592;48.846;2.358;2024-02-14T01:58:58;6.32;;;3.70;;
84392;SDS011;74592;48.846;2.358;2024-02-14T02:01:25;5.10;;;3.20;;
84392;SDS011;74592;48.846;2.358;2024-02-14T02:03:51;4.85;;;3.30;;
84392;SDS011;74592;48.846;2.358;2024-02-14T02:06:18;6.07;;;3.75;;
84392;SDS011;74592;48.846;2.358;2024-02-14T02:08:43;7.85;;;3.83;;
84392;SDS011;74592;48.846;2.358;2024-02-14T02:11:10;6.60;;;3.60;;
84392;SDS011;74592;48.846;2.358;2024-02-14T02:13:35;8.05;;;4.25;;
84392;SDS011;74592;48.846;2.358;2024-02-14T02:16:04;7.18;;;3.83;;
84392;SDS011;74592;48.846;2.358;2024-02-14T02:18:31;6.50;;;4.00;;
84392;SDS011;74592;48.846;2.358;2024-02-14T02:20:57;6.65;;;4.00;;
84392;SDS011;74592;48.846;2.358;2024-02-14T02:23:22;6.60;;;3.88;;
84392;SDS011;74592;48.846;2.358;2024-02-14T02:25:48;7.95;;;3.65;;
84392;SDS011;74592;48.846;2.358;2024-02-14T02:28:15;6.78;;;3.92;;
84392;SDS011;74592;48.846;2.358;2024-02-14T02:30:41;7.30;;;4.00;;
84392;SDS011;74592;48.846;2.358;2024-02-14T02:33:07;6.95;;;3.95;;
84392;SDS011;74592;48.846;2.358;2024-02-14T02:35:33;6.28;;;3.90;;
84392;SDS011;74592;48.846;2.358;2024-02-14T02:37:59;5.55;;;3.47;;
84392;SDS011;74592;48.846;2.358;2024-02-14T02:40:25;5.82;;;3.83;;
84392;SDS011;74592;48.846;2.358;2024-02-14T02:42:52;6.80;;;3.50;;
84392;SDS011;74592;48.846;2.358;2024-02-14T02:45:18;6.63;;;3.90;;
84392;SDS011;74592;48.846;2.358;2024-02-14T02:47:44;9.65;;;4.53;;
84392;SDS011;74592;48.846;2.358;2024-02-14T02:50:09;6.20;;;3.88;;
84392;SDS011;74592;48.846;2.358;2024-02-14T02:52:35;5.65;;;3.25;;
84392;SDS011;74592;48.846;2.358;2024-02-14T02:55:01;6.93;;;3.88;;
84392;SDS011;74592;48.846;2.358;2024-02-14T02:57:30;5.68;;;3.45;;
84392;SDS011;74592;48.846;2.358;2024-02-14T02:59:57;5.25;;;3.55;;
84392;SDS011;74592;48.846;2.358;2024-02-14T03:02:23;4.65;;;3.65;;
84392;SDS011;74592;48.846;2.358;2024-02-14T03:04:50;5.80;;;3.40;;
84392;SDS011;74592;48.846;2.358;2024-02-14T03:07:16;4.63;;;3.50;;
84392;SDS011;74592;48.846;2.358;2024-02-14T03:09:41;3.90;;;3.03;;
84392;SDS011;74592;48.846;2.358;2024-02-14T03:12:07;4.25;;;3.42;;
84392;SDS011;74592;48.846;2.358;2024-02-14T03:14:34;6.72;;;3.50;;
84392;SDS011;74592;48.846;2.358;2024-02-14T03:17:04;6.30;;;3.60;;
84392;SDS011;74592;48.846;2.358;2024-02-14T03:19:30;5.13;;;3.67;;
84392;SDS011;74592;48.846;2.358;2024-02-14T03:21:56;5.05;;;3.30;;
84392;SDS011;74592;48.846;2.358;2024-02-14T03:24:22;4.50;;;3.15;;
84392;SDS011;74592;48.846;2.358;2024-02-14T03:26:51;5.20;;;3.00;;
84392;SDS011;74592;48.846;2.358;2024-02-14T03:29:18;5.45;;;2.97;;
84392;SDS011;74592;48.846;2.358;2024-02-14T03:31:45;5.22;;;3.28;;
84392;SDS011;74592;48.846;2.358;2024-02-14T03:34:11;4.75;;;3.38;;
84392;SDS011;74592;48.846;2.358;2024-02-14T03:36:37;5.70;;;3.70;;
84392;SDS011;74592;48.846;2.358;2024-02-14T03:39:04;4.88;;;3.50;;
84392;SDS011;74592;48.846;2.358;2024-02-14T03:41:30;4.75;;;3.35;;
84392;SDS011;74592;48.846;2.358;2024-02-14T03:43:56;6.20;;;3.70;;
84392;SDS011;74592;48.846;2.358;2024-02-14T03:46:25;5.68;;;4.15;;
84392;SDS011;74592;48.846;2.358;2024-02-14T03:48:52;8.13;;;4.32;;
84392;SDS011;74592;48.846;2.358;2024-02-14T03:51:18;5.75;;;3.80;;
84392;SDS011;74592;48.846;2.358;2024-02-14T03:53:44;7.35;;;4.50;;
84392;SDS011;74592;48.846;2.358;2024-02-14T03:56:10;5.70;;;4.25;;
84392;SDS011;74592;48.846;2.358;2024-02-14T03:58:37;6.93;;;4.30;;
84392;SDS011;74592;48.846;2.358;2024-02-14T04:01:04;5.03;;;4.43;;
84392;SDS011;74592;48.846;2.358;2024-02-14T04:03:29;6.00;;;4.03;;
84392;SDS011;74592;48.846;2.358;2024-02-14T04:05:55;7.70;;;4.47;;
84392;SDS011;74592;48.846;2.358;2024-02-14T04:08:21;9.30;;;4.60;;
84392;SDS011;74592;48.846;2.358;2024-02-14T04:10:47;6.55;;;4.85;;
84392;SDS011;74592;48.846;2.358;2024-02-14T04:13:14;6.95;;;4.78;;
84392;SDS011;74592;48.846;2.358;2024-02-14T04:15:41;5.97;;;4.55;;
84392;SDS011;74592;48.846;2.358;2024-02-14T04:18:08;6.55;;;4.38;;
84392;SDS011;74592;48.846;2.358;2024-02-14T04:20:34;8.10;;;5.03;;
84392;SDS011;74592;48.846;2.358;2024-02-14T04:23:00;6.93;;;4.57;;
84392;SDS011;74592;48.846;2.358;2024-02-14T04:25:25;5.03;;;4.13;;
84392;SDS011;74592;48.846;2.358;2024-02-14T04:27:51;7.72;;;4.30;;
84392;SDS011;74592;48.846;2.358;2024-02-14T04:30:17;6.13;;;3.42;;
84392;SDS011;74592;48.846;2.358;2024-02-14T04:32:42;6.03;;;3.88;;
84392;SDS011;74592;48.846;2.358;2024-02-14T04:35:08;4.53;;;3.30;;
84392;SDS011;74592;48.846;2.358;2024-02-14T04:37:34;5.00;;;4.03;;
84392;SDS011;74592;48.846;2.358;2024-02-14T04:40:01;5.57;;;4.18;;
84392;SDS011;74592;48.846;2.358;2024-02-14T04:42:29;5.47;;;4.05;;
84392;SDS011;74592;48.846;2.358;2024-02-14T04:44:55;5.68;;;4.18;;
84392;SDS011;74592;48.846;2.358;2024-02-14T04:47:20;6.03;;;4.35;;
84392;SDS011;74592;48.846;2.358;2024-02-14T04:49:46;6.47;;;4.50;;
84392;SDS011;74592;48.846;2.358;2024-02-14T04:52:12;6.05;;;4.32;;
84392;SDS011;74592;48.846;2.358;2024-02-14T04:54:37;5.55;;;4.45;;
84392;SDS011;74592;48.846;2.358;2024-02-14T04:57:03;7.40;;;4.90;;
84392;SDS011;74592;48.846;2.358;2024-02-14T04:59:29;6.00;;;4.43;;
84392;SDS011;74592;48.846;2.358;2024-02-14T05:01:55;6.82;;;4.70;;
84392;SDS011;74592;48.846;2.358;2024-02-14T05:04:21;4.70;;;4.00;;
84392;SDS011;74592;48.846;2.358;2024-02-14T05:06:47;7.13;;;4.70;;
84392;SDS011;74592;48.846;2.358;2024-02-14T05:09:14;7.40;;;4.88;;
84392;SDS011;74592;48.846;2.358;2024-02-14T05:11:40;7.90;;;4.47;;
84392;SDS011;74592;48.846;2.358;2024-02-14T05:14:06;6.78;;;4.75;;
84392;SDS011;74592;48.846;2.358;2024-02-14T05:16:32;6.90;;;4.40;;
84392;SDS011;74592;48.846;2.358;2024-02-14T05:18:58;7.00;;;4.55;;
84392;SDS011;74592;48.846;2.358;2024-02-14T05:21:23;5.70;;;4.20;;
84392;SDS011;74592;48.846;2.358;2024-02-14T05:23:49;5.88;;;4.35;;
84392;SDS011;74592;48.846;2.358;2024-02-14T05:26:15;7.20;;;5.00;;
84392;SDS011;74592;48.846;2.358;2024-02-14T05:28:41;6.47;;;4.88;;
84392;SDS011;74592;48.846;2.358;2024-02-14T05:31:07;5.80;;;4.80;;
84392;SDS011;74592;48.846;2.358;2024-02-14T05:33:32;6.53;;;4.30;;
84392;SDS011;74592;48.846;2.358;2024-02-14T05:35:58;7.00;;;5.20;;
84392;SDS011;74592;48.846;2.358;2024-02-14T05:38:24;7.97;;;4.95;;
84392;SDS011;74592;48.846;2.358;2024-02-14T05:40:50;6.70;;;5.05;;
84392;SDS011;74592;48.846;2.358;2024-02-14T05:43:16;6.70;;;5.05;;
84392;SDS011;74592;48.846;2.358;2024-02-14T05:45:43;6.25;;;4.85;;
84392;SDS011;74592;48.846;2.358;2024-02-14T05:48:09;7.78;;;5.05;;
84392;SDS011;74592;48.846;2.358;2024-02-14T05:50:34;6.80;;;4.57;;
84392;SDS011;74592;48.846;2.358;2024-02-14T05:53:01;6.60;;;4.93;;
84392;SDS011;74592;48.846;2.358;2024-02-14T05:55:28;7.97;;;4.70;;
84392;SDS011;74592;48.846;2.358;2024-02-14T05:57:53;6.07;;;4.95;;
84392;SDS011;74592;48.846;2.358;2024-02-14T06:00:19;7.00;;;4.85;;
84392;SDS011;74592;48.846;2.358;2024-02-14T06:02:46;8.18;;;5.35;;
84392;SDS011;74592;48.846;2.358;2024-02-14T06:05:12;6.95;;;5.00;;
84392;SDS011;74592;48.846;2.358;2024-02-14T06:07:40;6.22;;;5.18;;
84392;SDS011;74592;48.846;2.358;2024-02-14T06:10:07;5.15;;;4.65;;
84392;SDS011;74592;48.846;2.358;2024-02-14T06:12:34;6.28;;;4.88;;
84392;SDS011;74592;48.846;2.358;2024-02-14T06:15:03;6.32;;;5.05;;
84392;SDS011;74592;48.846;2.358;2024-02-14T06:17:28;6.70;;;4.70;;
84392;SDS011;74592;48.846;2.358;2024-02-14T06:19:55;6.50;;;4.90;;
84392;SDS011;74592;48.846;2.358;2024-02-14T06:22:21;7.32;;;4.60;;
84392;SDS011;74592;48.846;2.358;2024-02-14T06:24:47;6.65;;;5.10;;
84392;SDS011;74592;48.846;2.358;2024-02-14T06:27:16;5.80;;;5.00;;
84392;SDS011;74592;48.846;2.358;2024-02-14T06:29:42;5.63;;;5.03;;
84392;SDS011;74592;48.846;2.358;2024-02-14T06:32:08;7.85;;;5.82;;
84392;SDS011;74592;48.846;2.358;2024-02-14T06:34:33;6.35;;;5.22;;
84392;SDS011;74592;48.846;2.358;2024-02-14T06:36:59;6.25;;;5.43;;
84392;SDS011;74592;48.846;2.358;2024-02-14T06:39:25;8.45;;;6.05;;
84392;SDS011;74592;48.846;2.358;2024-02-14T06:41:50;8.68;;;6.03;;
84392;SDS011;74592;48.846;2.358;2024-02-14T06:44:16;8.80;;;5.97;;
84392;SDS011;74592;48.846;2.358;2024-02-14T06:46:43;7.75;;;5.90;;
84392;SDS011;74592;48.846;2.358;2024-02-14T06:49:09;7.57;;;6.20;;
84392;SDS011;74592;48.846;2.358;2024-02-14T06:51:35;7.07;;;6.07;;
84392;SDS011;74592;48.846;2.358;2024-02-14T06:54:00;8.45;;;6.13;;
84392;SDS011;74592;48.846;2.358;2024-02-14T06:56:26;7.50;;;5.80;;
84392;SDS011;74592;48.846;2.358;2024-02-14T06:58:52;5.72;;;5.13;;
84392;SDS011;74592;48.846;2.358;2024-02-14T07:01:24;9.32;;;5.78;;
84392;SDS011;74592;48.846;2.358;2024-02-14T07:03:51;8.25;;;6.28;;
84392;SDS011;74592;48.846;2.358;2024-02-14T07:06:16;7.57;;;5.50;;
84392;SDS011;74592;48.846;2.358;2024-02-14T07:08:43;9.02;;;6.25;;
84392;SDS011;74592;48.846;2.358;2024-02-14T07:11:08;8.52;;;6.45;;
84392;SDS011;74592;48.846;2.358;2024-02-14T07:13:34;8.07;;;6.00;;
84392;SDS011;74592;48.846;2.358;2024-02-14T07:15:59;7.22;;;5.80;;
84392;SDS011;74592;48.846;2.358;2024-02-14T07:18:25;6.53;;;5.82;;
84392;SDS011;74592;48.846;2.358;2024-02-14T07:20:51;9.10;;;5.78;;
84392;SDS011;74592;48.846;2.358;2024-02-14T07:23:18;7.97;;;6.15;;
84392;SDS011;74592;48.846;2.358;2024-02-14T07:25:44;6.90;;;5.95;;
84392;SDS011;74592;48.846;2.358;2024-02-14T07:28:10;9.48;;;6.07;;
84392;SDS011;74592;48.846;2.358;2024-02-14T07:30:35;9.05;;;5.60;;
84392;SDS011;74592;48.846;2.358;2024-02-14T07:33:01;7.82;;;5.72;;
84392;SDS011;74592;48.846;2.358;2024-02-14T07:35:27;12.65;;;6.07;;
84392;SDS011;74592;48.846;2.358;2024-02-14T07:37:53;7.00;;;5.65;;
84392;SDS011;74592;48.846;2.358;2024-02-14T07:40:20;6.95;;;5.57;;
84392;SDS011;74592;48.846;2.358;2024-02-14T07:42:46;8.27;;;5.80;;
84392;SDS011;74592;48.846;2.358;2024-02-14T07:45:12;6.47;;;5.53;;
84392;SDS011;74592;48.846;2.358;2024-02-14T07:47:37;7.18;;;5.57;;
84392;SDS011;74592;48.846;2.358;2024-02-14T07:50:05;8.55;;;5.75;;
84392;SDS011;74592;48.846;2.358;2024-02-14T07:52:31;7.07;;;6.00;;
84392;SDS011;74592;48.846;2.358;2024-02-14T07:54:57;8.45;;;5.80;;
84392;SDS011;74592;48.846;2.358;2024-02-14T07:57:22;8.15;;;5.00;;
84392;SDS011;74592;48.846;2.358;2024-02-14T07:59:50;8.48;;;5.63;;
84392;SDS011;74592;48.846;2.358;2024-02-14T08:02:16;8.18;;;5.20;;
84392;SDS011;74592;48.846;2.358;2024-02-14T08:04:42;8.95;;;6.00;;
84392;SDS011;74592;48.846;2.358;2024-02-14T08:07:08;7.82;;;5.55;;
84392;SDS011;74592;48.846;2.358;2024-02-14T08:09:35;10.18;;;5.53;;
84392;SDS011;74592;48.846;2.358;2024-02-14T08:12:01;9.07;;;4.97;;
84392;SDS011;74592;48.846;2.358;2024-02-14T08:14:26;8.30;;;5.05;;
84392;SDS011;74592;48.846;2.358;2024-02-14T08:16:52;8.40;;;5.72;;
84392;SDS011;74592;48.846;2.358;2024-02-14T08:19:18;6.93;;;5.15;;
84392;SDS011;74592;48.846;2.358;2024-02-14T08:21:44;7.22;;;4.80;;
84392;SDS011;74592;48.846;2.358;2024-02-14T08:24:10;9.20;;;5.10;;
84392;SDS011;74592;48.846;2.358;2024-02-14T08:26:35;7.10;;;4.68;;
84392;SDS011;74592;48.846;2.358;2024-02-14T08:29:01;7.00;;;4.95;;
84392;SDS011;74592;48.846;2.358;2024-02-14T08:31:28;7.55;;;5.35;;
84392;SDS011;74592;48.846;2.358;2024-02-14T08:33:54;6.40;;;4.93;;
84392;SDS011;74592;48.846;2.358;2024-02-14T08:36:20;8.05;;;4.47;;
84392;SDS011;74592;48.846;2.358;2024-02-14T08:38:48;10.63;;;5.05;;
84392;SDS011;74592;48.846;2.358;2024-02-14T08:41:14;7.40;;;4.47;;
84392;SDS011;74592;48.846;2.358;2024-02-14T08:43:40;8.30;;;5.05;;
84392;SDS011;74592;48.846;2.358;2024-02-14T08:46:09;7.82;;;4.90;;
84392;SDS011;74592;48.846;2.358;2024-02-14T08:48:38;9.07;;;5.50;;
84392;SDS011;74592;48.846;2.358;2024-02-14T08:51:10;9.02;;;4.70;;
84392;SDS011;74592;48.846;2.358;2024-02-14T08:53:37;14.10;;;5.10;;
84392;SDS011;74592;48.846;2.358;2024-02-14T08:56:06;11.70;;;4.72;;
84392;SDS011;74592;48.846;2.358;2024-02-14T08:58:32;7.85;;;4.07;;
84392;SDS011;74592;48.846;2.358;2024-02-14T09:00:57;9.55;;;4.55;;
84392;SDS011;74592;48.846;2.358;2024-02-14T09:03:23;9.50;;;4.45;;
84392;SDS011;74592;48.846;2.358;2024-02-14T09:05:49;8.40;;;3.80;;
84392;SDS011;74592;48.846;2.358;2024-02-14T09:08:17;8.35;;;5.13;;
84392;SDS011;74592;48.846;2.358;2024-02-14T09:10:43;7.60;;;4.75;;
84392;SDS011;74592;48.846;2.358;2024-02-14T09:13:10;6.47;;;4.35;;
84392;SDS011;74592;48.846;2.358;2024-02-14T09:15:36;8.65;;;4.03;;
84392;SDS011;74592;48.846;2.358;2024-02-14T09:18:01;6.03;;;3.50;;
84392;SDS011;74592;48.846;2.358;2024-02-14T09:20:28;11.23;;;4.57;;
84392;SDS011;74592;48.846;2.358;2024-02-14T09:22:55;6.65;;;3.47;;
84392;SDS011;74592;48.846;2.358;2024-02-14T09:25:21;7.15;;;3.78;;
84392;SDS011;74592;48.846;2.358;2024-02-14T09:27:49;8.43;;;4.13;;
84392;SDS011;74592;48.846;2.358;2024-02-14T09:30:14;6.95;;;3.50;;
84392;SDS011;74592;48.846;2.358;2024-02-14T09:32:42;8.20;;;3.95;;
84392;SDS011;74592;48.846;2.358;2024-02-14T09:35:09;8.30;;;3.92;;
84392;SDS011;74592;48.846;2.358;2024-02-14T09:37:35;8.02;;;3.60;;
84392;SDS011;74592;48.846;2.358;2024-02-14T09:40:05;7.70;;;3.00;;
84392;SDS011;74592;48.846;2.358;2024-02-14T09:42:43;8.25;;;3.67;;
84392;SDS011;74592;48.846;2.358;2024-02-14T09:45:11;9.10;;;3.42;;
84392;SDS011;74592;48.846;2.358;2024-02-14T09:47:37;6.15;;;2.83;;
84392;SDS011;74592;48.846;2.358;2024-02-14T09:50:05;9.98;;;3.55;;
84392;SDS011;74592;48.846;2.358;2024-02-14T09:52:33;10.63;;;3.40;;
84392;SDS011;74592;48.846;2.358;2024-02-14T09:54:58;8.00;;;3.50;;
84392;SDS011;74592;48.846;2.358;2024-02-14T09:57:27;7.40;;;2.80;;
84392;SDS011;74592;48.846;2.358;2024-02-14T09:59:54;7.25;;;3.47;;
84392;SDS011;74592;48.846;2.358;2024-02-14T10:02:21;10.80;;;3.40;;
84392;SDS011;74592;48.846;2.358;2024-02-14T10:04:47;7.22;;;3.15;;
84392;SDS011;74592;48.846;2.358;2024-02-14T10:07:13;10.70;;;3.47;;
84392;SDS011;74592;48.846;2.358;2024-02-14T10:09:41;9.05;;;3.70;;
84392;SDS011;74592;48.846;2.358;2024-02-14T10:12:08;11.80;;;2.90;;
84392;SDS011;74592;48.846;2.358;2024-02-14T10:14:35;9.40;;;3.45;;
84392;SDS011;74592;48.846;2.358;2024-02-14T10:17:02;6.57;;;3.00;;
84392;SDS011;74592;48.846;2.358;2024-02-14T10:19:31;7.75;;;3.20;;
84392;SDS011;74592;48.846;2.358;2024-02-14T10:21:59;6.40;;;3.10;;
84392;SDS011;74592;48.846;2.358;2024-02-14T10:24:28;10.13;;;4.30;;
84392;SDS011;74592;48.846;2.358;2024-02-14T10:26:55;12.23;;;3.78;;
84392;SDS011;74592;48.846;2.358;2024-02-14T10:29:23;7.57;;;3.17;;
84392;SDS011;74592;48.846;2.358;2024-02-14T10:31:49;8.30;;;3.67;;
84392;SDS011;74592;48.846;2.358;2024-02-14T10:34:16;10.10;;;3.42;;
84392;SDS011;74592;48.846;2.358;2024-02-14T10:36:43;7.80;;;3.75;;
84392;SDS011;74592;48.846;2.358;2024-02-14T10:39:10;12.18;;;4.43;;
84392;SDS011;74592;48.846;2.358;2024-02-14T10:41:36;8.38;;;3.95;;
84392;SDS011;74592;48.846;2.358;2024-02-14T10:44:02;8.32;;;3.90;;
84392;SDS011;74592;48.846;2.358;2024-02-14T10:46:31;13.10;;;3.97;;
84392;SDS011;74592;48.846;2.358;2024-02-14T10:49:02;12.02;;;3.65;;
84392;SDS011;74592;48.846;2.358;2024-02-14T10:51:33;9.25;;;3.70;;
84392;SDS011;74592;48.846;2.358;2024-02-14T10:54:04;10.98;;;3.75;;
84392;SDS011;74592;48.846;2.358;2024-02-14T10:56:34;9.15;;;4.13;;
84392;SDS011;74592;48.846;2.358;2024-02-14T10:59:03;7.85;;;4.00;;
84392;SDS011;74592;48.846;2.358;2024-02-14T11:01:30;8.88;;;4.43;;
84392;SDS011;74592;48.846;2.358;2024-02-14T11:03:58;8.18;;;4.50;;
84392;SDS011;74592;48.846;2.358;2024-02-14T11:06:25;11.23;;;4.03;;
84392;SDS011;74592;48.846;2.358;2024-02-14T11:08:58;8.75;;;3.65;;
84392;SDS011;74592;48.846;2.358;2024-02-14T11:11:28;9.48;;;4.03;;
84392;SDS011;74592;48.846;2.358;2024-02-14T11:13:55;8.82;;;3.97;;
84392;SDS011;74592;48.846;2.358;2024-02-14T11:16:25;8.82;;;4.03;;
84392;SDS011;74592;48.846;2.358;2024-02-14T11:18:53;9.23;;;3.95;;
84392;SDS011;74592;48.846;2.358;2024-02-14T11:21:19;5.80;;;3.40;;
84392;SDS011;74592;48.846;2.358;2024-02-14T11:23:54;11.18;;;4.00;;
84392;SDS011;74592;48.846;2.358;2024-02-14T11:26:20;8.70;;;3.92;;
84392;SDS011;74592;48.846;2.358;2024-02-14T11:28:59;9.32;;;4.05;;
84392;SDS011;74592;48.846;2.358;2024-02-14T11:31:30;9.15;;;3.72;;
84392;SDS011;74592;48.846;2.358;2024-02-14T11:34:03;8.73;;;3.85;;
84392;SDS011;74592;48.846;2.358;2024-02-14T11:36:30;9.82;;;3.83;;
84392;SDS011;74592;48.846;2.358;2024-02-14T11:38:58;7.75;;;3.67;;
84392;SDS011;74592;48.846;2.358;2024-02-14T11:41:27;9.05;;;4.25;;
84392;SDS011;74592;48.846;2.358;2024-02-14T11:43:53;8.77;;;4.25;;
84392;SDS011;74592;48.846;2.358;2024-02-14T11:46:18;9.75;;;4.43;;
84392;SDS011;74592;48.846;2.358;2024-02-14T11:48:44;9.18;;;3.92;;
84392;SDS011;74592;48.846;2.358;2024-02-14T11:51:13;8.07;;;4.32;;
84392;SDS011;74592;48.846;2.358;2024-02-14T11:53:39;9.15;;;3.90;;
84392;SDS011;74592;48.846;2.358;2024-02-14T11:56:06;10.15;;;4.30;;
84392;SDS011;74592;48.846;2.358;2024-02-14T11:58:31;8.07;;;3.90;;
84392;SDS011;74592;48.846;2.358;2024-02-14T12:00:57;4.95;;;3.20;;
84392;SDS011;74592;48.846;2.358;2024-02-14T12:03:25;6.90;;;3.58;;
84392;SDS011;74592;48.846;2.358;2024-02-14T12:05:51;7.15;;;3.38;;
84392;SDS011;74592;48.846;2.358;2024-02-14T12:08:18;6.65;;;3.30;;
84392;SDS011;74592;48.846;2.358;2024-02-14T12:10:47;6.97;;;3.13;;
84392;SDS011;74592;48.846;2.358;2024-02-14T12:13:15;4.35;;;3.00;;
84392;SDS011;74592;48.846;2.358;2024-02-14T12:15:44;5.80;;;3.08;;
84392;SDS011;74592;48.846;2.358;2024-02-14T12:18:10;7.72;;;3.30;;
84392;SDS011;74592;48.846;2.358;2024-02-14T12:20:37;8.07;;;3.38;;
84392;SDS011;74592;48.846;2.358;2024-02-14T12:23:03;5.57;;;2.95;;
84392;SDS011;74592;48.846;2.358;2024-02-14T12:25:32;7.72;;;3.58;;
84392;SDS011;74592;48.846;2.358;2024-02-14T12:27:59;8.27;;;4.25;;
84392;SDS011;74592;48.846;2.358;2024-02-14T12:30:44;8.00;;;3.40;;
84392;SDS011;74592;48.846;2.358;2024-02-14T12:33:15;7.95;;;3.50;;
84392;SDS011;74592;48.846;2.358;2024-02-14T12:35:44;7.43;;;3.53;;
84392;SDS011;74592;48.846;2.358;2024-02-14T12:38:11;6.65;;;3.53;;
84392;SDS011;74592;48.846;2.358;2024-02-14T12:40:40;7.65;;;3.17;;
84392;SDS011;74592;48.846;2.358;2024-02-14T12:43:13;7.75;;;3.05;;
84392;SDS011;74592;48.846;2.358;2024-02-14T12:45:46;7.38;;;3.67;;
84392;SDS011;74592;48.846;2.358;2024-02-14T12:48:21;10.45;;;3.63;;
84392;SDS011;74592;48.846;2.358;2024-02-14T12:50:50;8.82;;;4.25;;
84392;SDS011;74592;48.846;2.358;2024-02-14T12:53:18;6.68;;;3.47;;
84392;SDS011;74592;48.846;2.358;2024-02-14T12:55:45;8.77;;;3.45;;
84392;SDS011;74592;48.846;2.358;2024-02-14T12:58:11;8.75;;;3.08;;
84392;SDS011;74592;48.846;2.358;2024-02-14T13:00:37;7.28;;;3.30;;
84392;SDS011;74592;48.846;2.358;2024-02-14T13:03:03;6.28;;;3.20;;
84392;SDS011;74592;48.846;2.358;2024-02-14T13:05:29;8.43;;;3.25;;
84392;SDS011;74592;48.846;2.358;2024-02-14T13:07:55;9.63;;;3.85;;
84392;SDS011;74592;48.846;2.358;2024-02-14T13:10:21;8.40;;;4.03;;
84392;SDS011;74592;48.846;2.358;2024-02-14T13:12:47;12.15;;;3.88;;
84392;SDS011;74592;48.846;2.358;2024-02-14T13:15:12;11.63;;;3.30;;
84392;SDS011;74592;48.846;2.358;2024-02-14T13:17:38;9.88;;;3.90;;
84392;SDS011;74592;48.846;2.358;2024-02-14T13:20:04;11.02;;;3.53;;
84392;SDS011;74592;48.846;2.358;2024-02-14T13:22:30;11.60;;;3.42;;
84392;SDS011;74592;48.846;2.358;2024-02-14T13:24:57;10.35;;;3.25;;
84392;SDS011;74592;48.846;2.358;2024-02-14T13:27:25;10.07;;;3.53;;
84392;SDS011;74592;48.846;2.358;2024-02-14T13:29:51;17.80;;;3.88;;
84392;SDS011;74592;48.846;2.358;2024-02-14T13:32:17;11.13;;;3.95;;
84392;SDS011;74592;48.846;2.358;2024-02-14T13:34:42;9.57;;;3.00;;
84392;SDS011;74592;48.846;2.358;2024-02-14T13:37:09;9.38;;;3.13;;
84392;SDS011;74592;48.846;2.358;2024-02-14T13:39:34;10.35;;;3.22;;
84392;SDS011;74592;48.846;2.358;2024-02-14T13:42:00;11.73;;;3.40;;
84392;SDS011;74592;48.846;2.358;2024-02-14T13:44:26;9.30;;;3.30;;
84392;SDS011;74592;48.846;2.358;2024-02-14T13:46:52;7.15;;;3.25;;
84392;SDS011;74592;48.846;2.358;2024-02-14T13:49:21;11.27;;;3.20;;
84392;SDS011;74592;48.846;2.358;2024-02-14T13:51:51;11.48;;;3.13;;
84392;SDS011;74592;48.846;2.358;2024-02-14T13:54:18;7.10;;;2.92;;
84392;SDS011;74592;48.846;2.358;2024-02-14T13:56:44;9.02;;;3.30;;
84392;SDS011;74592;48.846;2.358;2024-02-14T13:59:11;7.63;;;3.10;;
84392;SDS011;74592;48.846;2.358;2024-02-14T14:01:37;11.70;;;3.10;;
84392;SDS011;74592;48.846;2.358;2024-02-14T14:04:03;6.97;;;2.17;;
84392;SDS011;74592;48.846;2.358;2024-02-14T14:06:32;10.25;;;2.67;;
84392;SDS011;74592;48.846;2.358;2024-02-14T14:08:59;9.25;;;2.80;;
84392;SDS011;74592;48.846;2.358;2024-02-14T14:11:25;8.75;;;2.40;;
84392;SDS011;74592;48.846;2.358;2024-02-14T14:13:51;9.70;;;2.58;;
84392;SDS011;74592;48.846;2.358;2024-02-14T14:16:17;13.55;;;2.97;;
84392;SDS011;74592;48.846;2.358;2024-02-14T14:18:42;9.20;;;2.55;;
84392;SDS011;74592;48.846;2.358;2024-02-14T14:21:08;9.05;;;2.78;;
84392;SDS011;74592;48.846;2.358;2024-02-14T14:23:34;11.23;;;3.00;;
84392;SDS011;74592;48.846;2.358;2024-02-14T14:26:00;13.23;;;2.70;;
84392;SDS011;74592;48.846;2.358;2024-02-14T14:28:26;9.35;;;2.78;;
84392;SDS011;74592;48.846;2.358;2024-02-14T14:30:56;8.85;;;2.60;;
84392;SDS011;74592;48.846;2.358;2024-02-14T14:33:22;11.50;;;3.17;;
84392;SDS011;74592;48.846;2.358;2024-02-14T14:35:48;8.85;;;2.40;;
84392;SDS011;74592;48.846;2.358;2024-02-14T14:38:18;9.55;;;2.97;;
84392;SDS011;74592;48.846;2.358;2024-02-14T14:40:46;10.77;;;2.30;;
84392;SDS011;74592;48.846;2.358;2024-02-14T14:43:12;8.52;;;2.72;;